Flight Track Log - Related Links

Times and Time Zones

All times are in EDT time to prevent confusion due to time zone crossing. See the N770NC flight status page for this flight to view local times or setup timezone preferences in your user account.

Time Position Orientation Groundspeed Altitude Reporting Facility
EDT Latitude Longitude Course Direction KTS MPH feet Rate Location/Type
Thu 10:14:32 AM 33.6286 -84.4656 128° Southeast 409 471 2,600  Level Atlanta Center
Thu 10:14:52 AM 33.6167 -84.4833 231° Southwest 203 234 3,300 2,000 Climbing Atlanta TRACON
Thu 10:15:32 AM 33.5950 -84.5275 240° Southwest 323 372 4,600 2,220 Climbing Atlanta Center
Thu 10:16:32 AM 33.5322 -84.5722 211° Southwest 239 275 7,000 2,350 Climbing Atlanta Center
Thu 10:17:00 AM 33.2225 -84.2567 163° South  Level FlightAware Approximate
Thu 10:17:32 AM 33.4678 -84.5119 142° Southeast 303 349 9,300  Level Atlanta Center
Thu 10:18:00 AM 33.1190 -84.2190 163° South  Level FlightAware Approximate
Thu 10:18:32 AM 33.4094 -84.4319 131° Southeast 323 372 11,200  Level Atlanta Center
Thu 10:19:00 AM 33.0335 -84.1500 128° Southeast  Level FlightAware Approximate
Thu 10:19:32 AM 33.3408 -84.3422 132° Southeast 345 397 12,800  Level Atlanta Center
Thu 10:20:32 AM 33.2722 -84.2475 131° Southeast 364 419 15,200 2,150 Climbing Atlanta Center
Thu 10:21:32 AM 33.2014 -84.1431 129° Southeast 388 447 17,100 1,850 Climbing Atlanta Center
Thu 10:22:32 AM 33.1200 -84.0536 137° Southeast 388 447 18,900 1,600 Climbing Atlanta Center
Thu 10:23:32 AM 33.0408 -83.9744 140° Southeast 401 461 20,300 1,600 Climbing Atlanta Center
Thu 10:24:32 AM 32.9406 -83.8878 144° Southeast 424 488 22,100 1,350 Climbing Atlanta Center
Thu 10:25:32 AM 32.8400 -83.8039 145° Southeast 437 503 23,000 450 Climbing Atlanta Center
Thu 10:26:32 AM 32.7397 -83.7078 141° Southeast 455 524 23,000 -450 Level Atlanta Center
Thu 10:27:32 AM 32.6517 -83.5997 134° Southeast 455 524 22,100 -900 Descending Atlanta Center
Thu 10:28:32 AM 32.6072 -83.4594 111° Southeast 443 510 21,200 -900 Descending Atlanta Center
Thu 10:29:32 AM 32.5878 -83.3092 99° East 433 498 20,300 -950 Descending Atlanta Center
Thu 10:30:32 AM 32.5783 -83.1661 94° East 433 498 19,300 -1,100 Descending Atlanta Center
Thu 10:31:32 AM 32.5794 -83.0258 89° East 433 498 18,100 -1,100 Descending Atlanta Center
Thu 10:32:32 AM 32.5636 -82.8853 98° East 427 491 17,100 -450 Descending Atlanta Center
Thu 10:33:32 AM 32.5372 -82.7528 103° East 417 480 17,200 -50 Climbing Atlanta Center
Thu 10:34:32 AM 32.5042 -82.6053 105° East 417 480 17,000 -66 Descending Atlanta Center
Thu 10:36:35 AM 32.4242 -82.3486 110° East 440 506 17,000 -721 Level Jacksonville Center
Thu 10:37:35 AM 32.3881 -82.2111 107° East 404 465 14,800 -2,550 Descending Jacksonville Center
Thu 10:38:35 AM 32.3583 -82.0981 107° East 398 458 11,900 -1,900 Descending Jacksonville Center
Thu 10:39:35 AM 32.3219 -81.9658 108° East 393 452 11,000 -850 Descending Jacksonville Center
Thu 10:40:35 AM 32.3208 -81.8575 91° East 368 423 10,200 -700 Descending Jacksonville Center
Thu 10:41:35 AM 32.3283 -81.7542 85° East 342 394 9,600 -1,250 Descending Jacksonville Center
Thu 10:42:35 AM 32.3253 -81.6461 92° East 294 338 7,700 -1,700 Descending Jacksonville Center
Thu 10:43:35 AM 32.3225 -81.5625 92° East 288 331 6,200 -1,700 Descending Jacksonville Center
Thu 10:44:35 AM 32.3150 -81.4569 95° East 288 331 4,300 -1,600 Descending Jacksonville Center
Thu 10:45:35 AM 32.2889 -81.3689 109° East 283 326 3,000 -1,150 Descending Jacksonville Center
Thu 10:46:35 AM 32.2608 -81.2833 111° Southeast 278 320 2,000 -1,000 Descending Jacksonville Center

Login

Don't have an account? Register now (free) for customized features, flight alerts, and more!